Terminal Aerodrome Forecast
Issued by NWS

Home | Current Version | Previous Version | Text Only | Print | Product List | Glossary On
Versions: 1 2 3 4 5 6 7 8 9 10 11 12 13 14 15 16
000
FTUS42 KTAE 301120
TAFABY
TAF
KABY 301120Z 3012/3112 VRB04KT P6SM VCSH OVC006
     FM301400 15004KT P6SM BKN025
     FM301700 16005KT P6SM VCTS BKN040CB
     FM310000 12006KT P6SM BKN040=

USA.gov is the U.S. government's official web portal to all federal, state and local government web resources and services.